Time;durP1;ratioP1;P1;durP2;ratioP2;P2;SDS_P1;SDS_P2;PMS_P1;PMS_P2;Temp;Humidity;BMP_temperature;BMP_pressure;BME280_temperature;BME280_humidity;BME280_pressure;Samples;Min_cycle;Max_cycle;Signal;HPM_P1;HPM_P2
2023/11/02 00:02:03;;;;;;;0.93;0.60;;;12.90;83.30;;;;;;5061213;28;20038;-66
2023/11/02 00:04:29;;;;;;;2.05;0.60;;;12.90;83.20;;;;;;5065835;28;20475;-66
2023/11/02 00:06:55;;;;;;;0.40;0.40;;;12.90;83.10;;;;;;5064559;28;20092;-65
2023/11/02 00:09:30;;;;;;;3.50;0.75;;;12.90;83.00;;;;;;5062425;28;20028;-66
2023/11/02 00:12:02;;;;;;;0.32;0.32;;;12.90;83.00;;;;;;5063871;28;20503;-66
2023/11/02 00:14:34;;;;;;;0.73;0.30;;;12.80;83.10;;;;;;5067348;28;20048;-66
2023/11/02 00:17:00;;;;;;;3.10;0.60;;;12.80;83.10;;;;;;5062279;28;20487;-66
2023/11/02 00:19:37;;;;;;;3.38;0.68;;;12.80;83.10;;;;;;5065301;28;20412;-66
2023/11/02 00:22:10;;;;;;;0.52;0.52;;;12.80;83.10;;;;;;5069909;28;20092;-66
2023/11/02 00:24:37;;;;;;;0.55;0.50;;;12.80;83.20;;;;;;5059228;28;20077;-66
2023/11/02 00:27:03;;;;;;;0.50;0.50;;;12.80;83.20;;;;;;5070393;28;20017;-66
2023/11/02 00:29:30;;;;;;;2.28;0.73;;;12.80;83.20;;;;;;5068893;28;20040;-67
2023/11/02 00:31:56;;;;;;;0.65;0.63;;;12.80;83.20;;;;;;5062663;28;20403;-66
2023/11/02 00:34:22;;;;;;;0.65;0.65;;;12.80;83.10;;;;;;5061925;28;20050;-65
2023/11/02 00:36:48;;;;;;;0.47;0.47;;;12.80;83.00;;;;;;5062534;28;20063;-66
2023/11/02 00:39:13;;;;;;;0.40;0.40;;;12.80;83.00;;;;;;5062988;28;20020;-65
2023/11/02 00:41:39;;;;;;;0.25;0.20;;;12.80;82.90;;;;;;5065756;28;20035;-66
2023/11/02 00:44:06;;;;;;;0.30;0.30;;;12.80;83.00;;;;;;5069955;28;20029;-66
2023/11/02 00:46:34;;;;;;;2.92;0.57;;;12.80;83.00;;;;;;5067047;28;20139;-66
2023/11/02 00:49:02;;;;;;;0.73;0.73;;;12.80;83.00;;;;;;5065438;28;20024;-66
2023/11/02 00:51:31;;;;;;;0.38;0.30;;;12.80;83.00;;;;;;5066842;28;20036;-66
2023/11/02 00:54:05;;;;;;;0.30;0.30;;;12.80;83.00;;;;;;5065051;28;20373;-66
2023/11/02 00:56:35;;;;;;;0.57;0.57;;;12.80;82.90;;;;;;5060103;28;20035;-66
2023/11/02 00:59:03;;;;;;;0.73;0.32;;;12.80;82.80;;;;;;5061511;28;20539;-66
2023/11/02 01:01:29;;;;;;;1.85;0.50;;;12.80;82.80;;;;;;5068511;28;20530;-65
2023/11/02 01:04:02;;;;;;;3.35;0.65;;;12.80;82.70;;;;;;5063293;28;20025;-66
2023/11/02 01:06:30;;;;;;;0.40;0.20;;;12.90;82.70;;;;;;5065028;28;20036;-66
2023/11/02 01:08:58;;;;;;;2.35;0.65;;;12.90;82.60;;;;;;5067744;28;20050;-66
2023/11/02 01:11:31;;;;;;;1.85;0.82;;;12.90;82.40;;;;;;5066008;28;20032;-66
2023/11/02 01:13:57;;;;;;;0.40;0.40;;;12.90;82.30;;;;;;5061306;28;20024;-67
2023/11/02 01:16:23;;;;;;;0.30;0.20;;;12.80;82.20;;;;;;5068427;28;20114;-66
2023/11/02 01:18:49;;;;;;;0.35;0.22;;;12.80;82.20;;;;;;5067773;28;20060;-66
2023/11/02 01:21:15;;;;;;;0.80;0.68;;;12.80;82.10;;;;;;5065300;28;20024;-66
2023/11/02 01:23:41;;;;;;;1.40;0.40;;;12.80;82.10;;;;;;5065495;28;20021;-66
2023/11/02 01:26:36;;;;;;;0.40;0.35;;;12.80;82.10;;;;;;5064733;28;20025;-66
2023/11/02 01:29:02;;;;;;;1.00;0.77;;;12.80;82.10;;;;;;5060638;28;20071;-66
2023/11/02 01:31:32;;;;;;;0.50;0.50;;;12.80;82.10;;;;;;5064048;28;20455;-66
2023/11/02 01:33:59;;;;;;;3.97;0.50;;;12.80;82.00;;;;;;5059400;28;20020;-65
2023/11/02 01:36:37;;;;;;;0.30;0.20;;;12.80;82.00;;;;;;5069137;28;20043;-66
2023/11/02 01:39:15;;;;;;;2.65;0.57;;;12.90;81.90;;;;;;5068106;28;20027;-66
2023/11/02 01:42:11;;;;;;;0.63;0.40;;;12.80;81.90;;;;;;5068330;28;20028;-66
2023/11/02 01:44:59;;;;;;;0.68;0.38;;;12.80;82.10;;;;;;5067914;28;20454;-66
2023/11/02 01:47:44;;;;;;;0.20;0.20;;;12.80;82.00;;;;;;5066957;28;20054;-65
2023/11/02 01:50:45;;;;;;;1.27;0.65;;;12.70;82.00;;;;;;5067537;28;20065;-65
2023/11/02 01:53:46;;;;;;;0.40;0.40;;;12.70;82.10;;;;;;5053831;28;20115;-65
2023/11/02 01:56:42;;;;;;;0.40;0.40;;;12.70;82.00;;;;;;5063472;28;20021;-65
2023/11/02 01:59:31;;;;;;;0.63;0.50;;;12.70;82.00;;;;;;5058305;28;20107;-65
2023/11/02 02:02:24;;;;;;;1.20;0.45;;;12.70;82.00;;;;;;5067481;28;20115;-65
2023/11/02 02:04:51;;;;;;;0.88;0.63;;;12.80;82.00;;;;;;5062732;28;20476;-66
2023/11/02 02:07:21;;;;;;;1.88;0.63;;;12.70;82.00;;;;;;5068474;28;20643;-65
2023/11/02 02:10:13;;;;;;;0.28;0.20;;;12.70;81.90;;;;;;5064886;28;20033;-66
2023/11/02 02:13:16;;;;;;;0.80;0.52;;;12.80;81.80;;;;;;5060499;28;20514;-66
2023/11/02 02:15:57;;;;;;;7.85;0.73;;;12.80;81.90;;;;;;5074145;28;20060;-66
2023/11/02 02:18:37;;;;;;;0.35;0.32;;;12.70;82.00;;;;;;5068788;28;20095;-66
2023/11/02 02:21:09;;;;;;;0.57;0.50;;;12.70;82.10;;;;;;5060424;28;20021;-66
2023/11/02 02:23:53;;;;;;;2.58;0.47;;;12.80;82.00;;;;;;5057593;28;20029;-66
2023/11/02 02:26:43;;;;;;;1.48;0.75;;;12.80;82.00;;;;;;5062407;28;20020;-66
2023/11/02 02:29:43;;;;;;;1.63;0.60;;;12.80;81.80;;;;;;5064265;28;20371;-65
2023/11/02 02:32:30;;;;;;;1.10;0.70;;;12.80;81.80;;;;;;5053537;28;20394;-65
2023/11/02 02:35:23;;;;;;;1.33;0.47;;;12.80;82.00;;;;;;5068035;28;20064;-66
2023/11/02 02:38:00;;;;;;;1.65;0.70;;;12.80;81.90;;;;;;5062314;28;20114;-66
2023/11/02 02:40:41;;;;;;;0.43;0.30;;;12.80;81.90;;;;;;5061000;28;20032;-66
2023/11/02 02:43:08;;;;;;;0.40;0.30;;;12.80;81.90;;;;;;5068376;28;20028;-67
2023/11/02 02:45:34;;;;;;;1.17;0.57;;;12.80;81.80;;;;;;5070649;28;20357;-67
2023/11/02 02:48:03;;;;;;;0.28;0.28;;;12.80;82.50;;;;;;5070017;28;20024;-66
2023/11/02 02:50:30;;;;;;;0.75;0.50;;;12.80;81.80;;;;;;5069918;28;20032;-66
2023/11/02 02:53:01;;;;;;;0.28;0.25;;;12.80;81.70;;;;;;5061426;28;20036;-65
2023/11/02 02:55:33;;;;;;;0.60;0.43;;;12.80;81.60;;;;;;5072221;28;20035;-65
2023/11/02 02:58:02;;;;;;;0.30;0.30;;;12.80;81.60;;;;;;5063797;28;20479;-65
2023/11/02 03:00:31;;;;;;;0.32;0.32;;;12.80;81.60;;;;;;5067930;28;20028;-66
2023/11/02 03:02:59;;;;;;;2.38;0.40;;;12.80;81.60;;;;;;5068546;28;20036;-65
2023/11/02 03:05:28;;;;;;;0.30;0.30;;;12.80;81.50;;;;;;5074284;28;20468;-66
2023/11/02 03:08:00;;;;;;;0.50;0.50;;;12.90;81.50;;;;;;5067224;28;20407;-66
2023/11/02 03:10:27;;;;;;;1.65;0.73;;;12.90;81.50;;;;;;5067864;28;20031;-66
2023/11/02 03:12:57;;;;;;;3.03;0.50;;;12.90;81.40;;;;;;5062471;28;20028;-66
2023/11/02 03:15:28;;;;;;;1.42;0.32;;;12.90;81.40;;;;;;5069783;28;20048;-66
2023/11/02 03:18:11;;;;;;;1.85;0.40;;;12.90;81.10;;;;;;5068175;28;20031;-66
2023/11/02 03:20:41;;;;;;;0.35;0.30;;;12.90;81.00;;;;;;5069248;28;20032;-66
2023/11/02 03:23:32;;;;;;;0.52;0.32;;;12.90;80.90;;;;;;5065486;28;20036;-66
2023/11/02 03:26:24;;;;;;;1.25;0.35;;;12.90;80.90;;;;;;5068578;28;20041;-66
2023/11/02 03:29:09;;;;;;;2.13;0.50;;;13.00;80.90;;;;;;5056359;28;20514;-66
2023/11/02 03:31:40;;;;;;;1.63;0.50;;;13.00;80.90;;;;;;5058319;28;20391;-66
2023/11/02 03:34:32;;;;;;;0.70;0.40;;;13.00;80.80;;;;;;5067638;28;20024;-66
2023/11/02 03:37:11;;;;;;;2.45;0.40;;;13.00;80.60;;;;;;5063145;28;20124;-66
2023/11/02 03:39:45;;;;;;;0.77;0.57;;;12.90;80.70;;;;;;5065810;28;20033;-65
2023/11/02 03:42:55;;;;;;;2.47;0.60;;;13.00;80.60;;;;;;5076732;28;20024;-66
2023/11/02 03:45:32;;;;;;;0.63;0.43;;;13.00;80.50;;;;;;5066205;28;20016;-65
2023/11/02 03:48:28;;;;;;;0.35;0.30;;;13.00;80.30;;;;;;5071987;28;20025;-65
2023/11/02 03:51:13;;;;;;;1.63;0.50;;;13.00;80.30;;;;;;5063585;28;20035;-65
2023/11/02 03:53:55;;;;;;;3.45;0.50;;;13.00;80.30;;;;;;5073321;28;20510;-66
2023/11/02 03:56:27;;;;;;;;;;;13.00;80.40;;;;;;5067869;28;20032;-65
2023/11/02 03:58:53;;;;;;;0.40;0.40;;;12.90;80.30;;;;;;5063636;28;19908;-65
2023/11/02 04:01:37;;;;;;;0.30;0.30;;;13.00;80.40;;;;;;5079907;28;20029;-65
2023/11/02 04:04:06;;;;;;;0.40;0.40;;;13.00;80.10;;;;;;5066314;28;20680;-67
2023/11/02 04:06:57;;;;;;;1.13;0.63;;;13.10;80.00;;;;;;5065981;28;20044;-66
2023/11/02 04:09:24;;;;;;;1.23;0.60;;;13.20;79.90;;;;;;5065516;28;20052;-65
2023/11/02 04:11:58;;;;;;;1.05;0.38;;;13.10;79.90;;;;;;5066782;28;20420;-66
2023/11/02 04:14:25;;;;;;;0.68;0.52;;;13.10;79.90;;;;;;5067497;28;20102;-65
2023/11/02 04:16:51;;;;;;;0.35;0.35;;;13.10;79.70;;;;;;5062271;28;20025;-66
2023/11/02 04:19:17;;;;;;;2.88;0.77;;;13.10;79.60;;;;;;5055323;28;20057;-65
2023/11/02 04:21:42;;;;;;;0.30;0.30;;;13.20;79.50;;;;;;5060059;28;20032;-66
2023/11/02 04:24:08;;;;;;;1.15;0.50;;;13.20;79.30;;;;;;5082674;28;20016;-67
2023/11/02 04:26:35;;;;;;;1.20;0.70;;;13.20;79.20;;;;;;5069290;28;20567;-67
2023/11/02 04:29:00;;;;;;;1.02;0.47;;;13.20;79.20;;;;;;5060204;28;20041;-67
2023/11/02 04:31:26;;;;;;;0.32;0.25;;;13.20;79.10;;;;;;5064874;28;20556;-66
2023/11/02 04:33:52;;;;;;;3.72;0.60;;;13.20;79.00;;;;;;5065551;28;20024;-66
2023/11/02 04:36:17;;;;;;;4.05;0.50;;;13.20;78.90;;;;;;5059625;28;20511;-66
2023/11/02 04:38:44;;;;;;;1.08;0.47;;;13.20;79.00;;;;;;5069245;28;20040;-66
2023/11/02 04:41:10;;;;;;;1.23;0.52;;;13.20;78.90;;;;;;5065311;28;20132;-66
2023/11/02 04:43:36;;;;;;;0.47;0.30;;;13.20;78.60;;;;;;5060371;28;20096;-65
2023/11/02 04:46:03;;;;;;;1.25;0.60;;;13.30;78.80;;;;;;5049039;28;20508;-66
2023/11/02 04:48:28;;;;;;;1.75;0.40;;;13.30;78.60;;;;;;5059933;28;20079;-66
2023/11/02 04:50:55;;;;;;;1.65;0.68;;;13.30;78.20;;;;;;5056894;28;20494;-66
2023/11/02 04:53:22;;;;;;;2.83;0.68;;;13.30;78.10;;;;;;5064846;28;20055;-67
2023/11/02 04:55:48;;;;;;;0.95;0.75;;;13.30;78.20;;;;;;5085148;28;20036;-67
2023/11/02 04:58:14;;;;;;;1.55;0.95;;;13.30;77.70;;;;;;5065641;28;20111;-66
2023/11/02 05:00:39;;;;;;;0.63;0.40;;;13.30;77.70;;;;;;5060085;28;20117;-67
2023/11/02 05:03:05;;;;;;;0.43;0.40;;;13.30;77.70;;;;;;5057290;28;20386;-66
2023/11/02 05:05:31;;;;;;;0.38;0.30;;;13.30;77.50;;;;;;5041430;28;20039;-66
2023/11/02 05:07:57;;;;;;;0.38;0.38;;;13.40;77.70;;;;;;5059780;28;20055;-66
2023/11/02 05:10:23;;;;;;;0.77;0.60;;;13.40;77.50;;;;;;5057000;28;20326;-66
2023/11/02 05:12:48;;;;;;;1.45;0.82;;;13.40;77.40;;;;;;5069482;28;20025;-66
2023/11/02 05:15:14;;;;;;;1.05;0.75;;;13.40;76.90;;;;;;5059629;28;20028;-65
2023/11/02 05:17:39;;;;;;;2.05;0.50;;;13.40;77.00;;;;;;5057994;28;20028;-67
2023/11/02 05:20:06;;;;;;;1.90;0.73;;;13.40;77.10;;;;;;5058467;28;20064;-67
2023/11/02 05:22:31;;;;;;;0.40;0.40;;;13.40;76.80;;;;;;5055547;28;20024;-66
2023/11/02 05:24:57;;;;;;;0.60;0.50;;;13.40;76.80;;;;;;5056827;28;20039;-66
2023/11/02 05:27:24;;;;;;;0.40;0.40;;;13.40;76.90;;;;;;5058044;28;20032;-66
2023/11/02 05:29:49;;;;;;;2.85;0.80;;;13.40;76.80;;;;;;5054323;28;20021;-66
2023/11/02 05:32:17;;;;;;;1.08;0.55;;;13.40;76.90;;;;;;5061057;28;20091;-66
2023/11/02 05:34:43;;;;;;;0.65;0.63;;;13.40;76.90;;;;;;5062440;28;20357;-66
2023/11/02 05:37:08;;;;;;;0.85;0.30;;;13.40;76.90;;;;;;5054181;28;20035;-66
2023/11/02 05:39:34;;;;;;;0.90;0.70;;;13.40;76.60;;;;;;5058120;28;20101;-67
2023/11/02 05:42:00;;;;;;;0.57;0.50;;;13.40;76.50;;;;;;5057230;28;20039;-67
2023/11/02 05:44:25;;;;;;;1.05;0.73;;;13.40;76.60;;;;;;5063806;28;20029;-65
2023/11/02 05:46:52;;;;;;;1.98;0.38;;;13.40;76.50;;;;;;5056043;28;20063;-66
2023/11/02 05:49:18;;;;;;;1.60;0.50;;;13.50;76.50;;;;;;5064730;28;20016;-66
2023/11/02 05:51:44;;;;;;;0.55;0.55;;;13.50;76.20;;;;;;5057706;28;20033;-65
2023/11/02 05:54:10;;;;;;;0.30;0.30;;;13.40;76.20;;;;;;5056256;28;20020;-65
2023/11/02 05:56:35;;;;;;;0.93;0.32;;;13.50;76.20;;;;;;5064032;28;20434;-65
2023/11/02 05:59:01;;;;;;;0.73;0.60;;;13.50;76.10;;;;;;5054762;28;20487;-67
2023/11/02 06:01:27;;;;;;;0.57;0.47;;;13.50;76.10;;;;;;5062299;28;20039;-65
2023/11/02 06:03:52;;;;;;;0.70;0.60;;;13.50;75.80;;;;;;5059151;28;20027;-67
2023/11/02 06:06:18;;;;;;;2.85;0.70;;;13.50;75.80;;;;;;5057208;28;20499;-67
2023/11/02 06:08:44;;;;;;;0.40;0.40;;;13.50;75.60;;;;;;5059612;28;20021;-66
2023/11/02 06:11:09;;;;;;;0.73;0.40;;;13.50;75.60;;;;;;5061556;28;20032;-65
2023/11/02 06:13:35;;;;;;;1.45;0.88;;;13.50;75.50;;;;;;5066806;28;20116;-67
2023/11/02 06:16:01;;;;;;;1.25;0.47;;;13.50;75.60;;;;;;5067735;28;20051;-67
2023/11/02 06:18:26;;;;;;;1.70;0.52;;;13.50;75.70;;;;;;5062860;28;20485;-67
2023/11/02 06:20:53;;;;;;;0.40;0.38;;;13.50;75.70;;;;;;5062420;28;20035;-67
2023/11/02 06:23:19;;;;;;;0.80;0.60;;;13.50;76.10;;;;;;5058330;28;20060;-67
2023/11/02 06:25:44;;;;;;;0.40;0.40;;;13.50;76.10;;;;;;5061836;28;20063;-67
2023/11/02 06:28:10;;;;;;;0.30;0.30;;;13.50;76.10;;;;;;5062391;28;20056;-67
2023/11/02 06:30:36;;;;;;;0.90;0.70;;;13.50;76.10;;;;;;5058609;28;20499;-67
2023/11/02 06:33:07;;;;;;;1.30;0.57;;;13.50;76.10;;;;;;5058138;28;20471;-67
2023/11/02 06:35:32;;;;;;;0.60;0.50;;;13.40;76.00;;;;;;5069858;28;20020;-66
2023/11/02 06:37:59;;;;;;;0.85;0.68;;;13.40;76.30;;;;;;5061935;28;20020;-65
2023/11/02 06:40:27;;;;;;;1.15;0.47;;;13.40;76.50;;;;;;5073124;28;20016;-66
2023/11/02 06:42:57;;;;;;;3.90;0.77;;;13.50;76.80;;;;;;5067329;28;20024;-66
2023/11/02 06:45:23;;;;;;;0.50;0.30;;;13.40;76.90;;;;;;5064376;28;20389;-66
2023/11/02 06:47:49;;;;;;;0.98;0.73;;;13.40;77.20;;;;;;5067627;28;20552;-65
2023/11/02 06:50:15;;;;;;;5.57;0.30;;;13.40;77.40;;;;;;5067145;28;20387;-67
2023/11/02 06:52:41;;;;;;;0.45;0.35;;;13.40;77.70;;;;;;5067623;28;20340;-66
2023/11/02 06:55:07;;;;;;;0.90;0.68;;;13.40;77.70;;;;;;5062407;28;20071;-68
2023/11/02 06:57:33;;;;;;;0.85;0.65;;;13.40;77.90;;;;;;5063297;28;20029;-68
2023/11/02 06:59:59;;;;;;;1.75;0.85;;;13.40;77.90;;;;;;5066431;28;20573;-68
2023/11/02 07:02:24;;;;;;;0.57;0.40;;;13.40;78.20;;;;;;5064108;28;20368;-67
2023/11/02 07:04:57;;;;;;;0.40;0.40;;;13.30;78.40;;;;;;5062684;28;20088;-66
2023/11/02 07:07:23;;;;;;;0.47;0.40;;;13.30;78.40;;;;;;5063966;28;20028;-66
2023/11/02 07:09:50;;;;;;;0.85;0.35;;;13.30;78.60;;;;;;5066082;28;20029;-65
2023/11/02 07:12:19;;;;;;;0.28;0.28;;;13.40;78.80;;;;;;5059522;28;20503;-69
2023/11/02 07:14:46;;;;;;;0.50;0.45;;;13.40;79.00;;;;;;5052769;28;20037;-67
2023/11/02 07:17:13;;;;;;;0.63;0.57;;;13.30;79.20;;;;;;5047634;28;20017;-67
2023/11/02 07:19:38;;;;;;;1.05;0.40;;;13.30;79.30;;;;;;5064071;28;20048;-65
2023/11/02 07:22:04;;;;;;;2.92;0.63;;;13.30;79.40;;;;;;5062104;28;20032;-65
2023/11/02 07:24:30;;;;;;;0.40;0.40;;;13.30;79.60;;;;;;5064469;28;20028;-66
2023/11/02 07:26:56;;;;;;;5.28;0.85;;;13.30;79.80;;;;;;5056650;28;20514;-67
2023/11/02 07:29:22;;;;;;;0.45;0.43;;;13.30;79.90;;;;;;5056557;28;20531;-67
2023/11/02 07:31:47;;;;;;;3.10;1.00;;;13.30;80.10;;;;;;5065162;28;20024;-67
2023/11/02 07:34:13;;;;;;;0.57;0.52;;;13.30;80.20;;;;;;5055909;28;20403;-67
2023/11/02 07:36:39;;;;;;;0.77;0.43;;;13.30;80.40;;;;;;5059148;28;20040;-67
2023/11/02 07:39:05;;;;;;;0.60;0.50;;;13.30;80.60;;;;;;5060657;28;20033;-65
2023/11/02 07:41:30;;;;;;;1.10;0.32;;;13.30;80.80;;;;;;5053847;28;20087;-66
2023/11/02 07:43:56;;;;;;;0.40;0.30;;;13.30;80.90;;;;;;5080101;28;20118;-67
2023/11/02 07:46:22;;;;;;;0.45;0.30;;;13.30;80.90;;;;;;5062261;28;20035;-69
2023/11/02 07:48:48;;;;;;;0.25;0.25;;;13.30;81.00;;;;;;5082243;28;20446;-68
2023/11/02 07:51:14;;;;;;;3.22;0.98;;;13.30;81.20;;;;;;5055615;28;20048;-67
2023/11/02 07:53:40;;;;;;;0.45;0.30;;;13.40;81.40;;;;;;5064738;28;20101;-67
2023/11/02 07:56:08;;;;;;;1.02;0.60;;;13.40;81.40;;;;;;5064066;28;20472;-67
2023/11/02 07:58:36;;;;;;;1.23;0.52;;;13.50;81.30;;;;;;5058913;28;20039;-67
2023/11/02 08:01:02;;;;;;;2.03;1.02;;;13.50;81.30;;;;;;5066236;28;20032;-67
2023/11/02 08:03:28;;;;;;;0.63;0.40;;;13.50;81.30;;;;;;5070416;28;20119;-68
2023/11/02 08:05:54;;;;;;;0.30;0.30;;;13.60;81.40;;;;;;5061116;28;20151;-68
2023/11/02 08:08:20;;;;;;;0.77;0.50;;;13.60;81.30;;;;;;5064844;28;20455;-67
2023/11/02 08:10:46;;;;;;;0.20;0.20;;;13.60;81.30;;;;;;5069808;28;20139;-67
2023/11/02 08:13:12;;;;;;;2.28;1.13;;;13.70;81.30;;;;;;5062010;28;20036;-67
2023/11/02 08:15:38;;;;;;;0.35;0.30;;;13.70;81.10;;;;;;5056840;28;20480;-67
2023/11/02 08:18:04;;;;;;;0.30;0.30;;;13.80;81.10;;;;;;5060588;28;20024;-68
2023/11/02 08:20:31;;;;;;;0.95;0.30;;;13.80;80.90;;;;;;5060009;28;20098;-69
2023/11/02 08:22:57;;;;;;;0.47;0.45;;;14.00;80.80;;;;;;5060346;28;20040;-68
2023/11/02 08:25:22;;;;;;;0.30;0.30;;;14.20;80.40;;;;;;5047571;28;20054;-67
2023/11/02 08:27:56;;;;;;;1.90;0.43;;;14.30;79.90;;;;;;5059890;28;20025;-67
2023/11/02 08:30:25;;;;;;;1.65;0.30;;;14.50;79.70;;;;;;5075675;28;20086;-69
2023/11/02 08:32:52;;;;;;;0.40;0.40;;;14.60;79.20;;;;;;5067009;28;20426;-67
2023/11/02 08:35:18;;;;;;;0.82;0.47;;;14.70;79.10;;;;;;5063648;28;20069;-67
2023/11/02 08:37:45;;;;;;;0.30;0.30;;;14.90;78.60;;;;;;5065176;28;20033;-67
2023/11/02 08:40:11;;;;;;;1.98;0.55;;;15.00;78.20;;;;;;5070520;28;20554;-68
2023/11/02 08:42:37;;;;;;;1.10;0.60;;;15.00;77.80;;;;;;5052437;28;20037;-69
2023/11/02 08:45:08;;;;;;;0.25;0.25;;;15.00;77.70;;;;;;5061811;28;20032;-68
2023/11/02 08:47:34;;;;;;;0.90;0.40;;;15.10;77.50;;;;;;5058208;28;20028;-67
2023/11/02 08:50:00;;;;;;;1.17;0.57;;;15.10;77.30;;;;;;5061893;28;20043;-67
2023/11/02 08:52:27;;;;;;;0.43;0.40;;;15.10;77.30;;;;;;5061582;28;20573;-67
2023/11/02 08:54:52;;;;;;;0.50;0.50;;;15.00;77.20;;;;;;5048648;28;20041;-69
2023/11/02 08:57:18;;;;;;;0.93;0.30;;;15.00;77.20;;;;;;5057869;28;20437;-68
2023/11/02 08:59:44;;;;;;;0.40;0.40;;;14.90;76.80;;;;;;5057303;28;20056;-68
2023/11/02 09:02:10;;;;;;;0.40;0.25;;;14.90;77.10;;;;;;5038420;28;20109;-68
2023/11/02 09:04:36;;;;;;;3.42;0.50;;;14.90;77.20;;;;;;5060350;28;20470;-69
2023/11/02 09:07:02;;;;;;;1.42;0.88;;;14.90;77.20;;;;;;5057561;28;20476;-69
2023/11/02 09:09:28;;;;;;;0.50;0.40;;;14.90;77.10;;;;;;5059661;28;20095;-65
2023/11/02 09:11:54;;;;;;;0.65;0.40;;;14.90;77.20;;;;;;5055428;28;20040;-64
2023/11/02 09:14:20;;;;;;;2.45;0.40;;;14.90;77.20;;;;;;5054587;28;20045;-66
2023/11/02 09:16:46;;;;;;;0.70;0.43;;;14.90;77.30;;;;;;5055308;28;20480;-68
2023/11/02 09:19:11;;;;;;;0.45;0.45;;;14.90;77.10;;;;;;5060578;28;20079;-67
2023/11/02 09:21:38;;;;;;;0.73;0.40;;;14.80;77.00;;;;;;5055932;28;20029;-67
2023/11/02 09:24:04;;;;;;;0.70;0.40;;;14.80;77.10;;;;;;5038694;28;20584;-67
2023/11/02 09:26:30;;;;;;;2.13;0.55;;;14.90;76.50;;;;;;5063578;28;20032;-67
2023/11/02 09:28:56;;;;;;;0.40;0.40;;;14.80;76.50;;;;;;5056176;28;20387;-67
2023/11/02 09:31:22;;;;;;;3.92;1.58;;;14.80;76.60;;;;;;5075675;28;20041;-67
2023/11/02 09:33:48;;;;;;;0.65;0.50;;;14.80;76.50;;;;;;5064320;28;20028;-68
2023/11/02 09:36:14;;;;;;;0.43;0.40;;;14.80;76.10;;;;;;5059665;28;20136;-67
2023/11/02 09:38:41;;;;;;;0.63;0.52;;;14.90;76.00;;;;;;5064719;28;20032;-68
2023/11/02 09:41:07;;;;;;;1.30;0.82;;;14.90;75.90;;;;;;5064746;28;20071;-69
2023/11/02 09:43:34;;;;;;;0.38;0.30;;;14.90;75.70;;;;;;5065088;28;20078;-69
2023/11/02 09:46:01;;;;;;;1.45;0.70;;;14.90;75.90;;;;;;5058307;28;20052;-67
2023/11/02 09:48:27;;;;;;;1.00;0.30;;;15.00;76.00;;;;;;5061767;28;20037;-67
2023/11/02 09:50:52;;;;;;;1.63;0.85;;;15.00;75.80;;;;;;5061352;28;20304;-67
2023/11/02 09:53:18;;;;;;;2.60;0.47;;;15.10;75.80;;;;;;5063573;28;20024;-67
2023/11/02 09:55:44;;;;;;;0.75;0.75;;;15.10;75.40;;;;;;5053885;28;20036;-67
2023/11/02 09:58:11;;;;;;;0.47;0.35;;;15.10;75.60;;;;;;5060534;28;20437;-68
2023/11/02 10:00:37;;;;;;;0.40;0.40;;;15.20;75.60;;;;;;5063287;28;20021;-67
2023/11/02 10:03:03;;;;;;;0.52;0.43;;;15.20;75.30;;;;;;5060642;28;20017;-67
2023/11/02 10:05:29;;;;;;;0.45;0.35;;;15.30;75.40;;;;;;5060874;28;20043;-67
2023/11/02 10:07:54;;;;;;;0.80;0.30;;;15.40;75.30;;;;;;5062040;28;20396;-66
2023/11/02 10:10:21;;;;;;;4.68;0.90;;;15.70;74.90;;;;;;5067144;28;20047;-68
2023/11/02 10:12:47;;;;;;;0.73;0.65;;;15.90;72.50;;;;;;5058644;28;20044;-67
2023/11/02 11:28:56;;;;;;;2.17;0.93;;;17.40;59.10;;;;;;4766774;28;7604077;-65
2023/11/02 11:31:51;;;;;;;2.63;1.08;;;17.50;57.20;;;;;;5026159;28;20060;-65
2023/11/02 11:34:17;;;;;;;2.05;0.65;;;18.00;57.10;;;;;;5042096;28;20384;-67
2023/11/02 11:36:43;;;;;;;2.17;0.60;;;18.80;55.00;;;;;;5021833;28;20037;-67
2023/11/02 11:39:38;;;;;;;0.82;0.80;;;19.30;54.30;;;;;;5031753;28;20428;-67
2023/11/02 11:42:04;;;;;;;5.43;0.70;;;19.60;53.10;;;;;;5021612;28;20040;-67
2023/11/02 11:44:32;;;;;;;1.42;1.25;;;20.30;52.40;;;;;;4995276;28;20042;-68
2023/11/02 11:47:00;;;;;;;2.95;0.77;;;21.00;51.30;;;;;;5013983;28;20053;-68
2023/11/02 11:49:44;;;;;;;3.45;0.65;;;21.00;48.90;;;;;;5010614;28;20469;-64
2023/11/02 11:52:23;;;;;;;1.58;0.75;;;20.40;50.10;;;;;;5020698;28;20025;-68
2023/11/02 11:54:50;;;;;;;1.25;0.60;;;20.20;50.40;;;;;;5022931;28;20117;-69
2023/11/02 11:57:51;;;;;;;3.85;0.80;;;20.70;51.20;;;;;;5024591;28;20105;-68
2023/11/02 12:00:17;;;;;;;1.63;0.63;;;22.10;46.50;;;;;;5029286;28;20025;-68
2023/11/02 12:02:44;;;;;;;0.60;0.60;;;22.20;46.80;;;;;;5026307;28;20037;-68
2023/11/02 12:05:10;;;;;;;1.40;0.63;;;21.30;47.50;;;;;;5012673;28;20059;-68
2023/11/02 12:07:38;;;;;;;0.63;0.60;;;20.40;49.50;;;;;;5031028;28;20041;-68
2023/11/02 12:10:05;;;;;;;2.05;0.82;;;19.60;51.70;;;;;;5029080;28;20029;-68
2023/11/02 12:12:31;;;;;;;2.03;0.70;;;18.80;52.90;;;;;;5024614;28;20508;-68
2023/11/02 12:15:19;;;;;;;0.73;0.50;;;18.20;56.70;;;;;;5011295;28;20040;-68
2023/11/02 12:17:50;;;;;;;2.25;0.70;;;17.60;58.90;;;;;;5028096;28;20095;-67
2023/11/02 12:20:48;;;;;;;0.85;0.70;;;17.40;60.20;;;;;;5024916;28;20048;-68
2023/11/02 12:23:14;;;;;;;2.35;0.80;;;18.20;57.40;;;;;;4996736;28;20390;-68
2023/11/02 12:25:41;;;;;;;2.70;0.68;;;19.00;55.70;;;;;;5023802;28;20030;-68
2023/11/02 12:28:11;;;;;;;0.45;0.45;;;20.00;54.40;;;;;;4992157;28;20124;-69
2023/11/02 12:30:59;;;;;;;1.35;0.80;;;21.80;50.40;;;;;;5002066;28;20477;-68
2023/11/02 12:33:32;;;;;;;1.08;0.63;;;23.50;45.60;;;;;;5022670;28;20047;-65
2023/11/02 12:36:17;;;;;;;1.30;0.50;;;24.50;43.80;;;;;;4964959;28;20089;-65
2023/11/02 12:38:55;;;;;;;0.90;0.63;;;24.70;42.50;;;;;;4979056;28;20064;-65
2023/11/02 12:41:26;;;;;;;4.55;0.68;;;23.70;43.00;;;;;;4970993;28;20438;-65
2023/11/02 12:44:23;;;;;;;0.40;0.40;;;22.60;45.70;;;;;;4985975;28;20079;-65
2023/11/02 12:46:52;;;;;;;1.02;0.57;;;21.30;46.60;;;;;;4966684;28;20167;-65
2023/11/02 12:49:27;;;;;;;0.73;0.60;;;20.20;48.90;;;;;;4976147;28;20421;-65
2023/11/02 12:52:09;;;;;;;2.95;0.57;;;19.30;50.90;;;;;;4976969;28;20406;-65
2023/11/02 12:54:36;;;;;;;5.55;0.57;;;18.70;51.90;;;;;;4984074;28;20058;-64
2023/11/02 12:57:08;;;;;;;0.80;0.80;;;18.30;53.20;;;;;;4986361;28;20031;-68
2023/11/02 12:59:42;;;;;;;1.25;0.50;;;18.00;53.90;;;;;;4984870;28;20398;-68
2023/11/02 13:02:11;;;;;;;0.95;0.47;;;17.80;54.50;;;;;;4971118;28;20030;-68
2023/11/02 13:04:52;;;;;;;6.03;0.88;;;17.60;54.80;;;;;;4976786;28;20066;-68
2023/11/02 13:07:30;;;;;;;0.80;0.63;;;17.50;54.10;;;;;;4983577;28;20042;-68
2023/11/02 13:10:06;;;;;;;4.75;0.73;;;17.40;54.40;;;;;;4985783;28;20070;-69
2023/11/02 13:12:34;;;;;;;8.25;1.98;;;17.30;54.30;;;;;;4981630;28;20030;-68
2023/11/02 13:15:02;;;;;;;0.85;0.80;;;17.30;54.70;;;;;;5009545;28;20029;-68
2023/11/02 13:17:28;;;;;;;0.70;0.70;;;17.20;55.40;;;;;;5028883;28;20108;-68
2023/11/02 13:19:53;;;;;;;2.53;1.02;;;17.20;55.60;;;;;;5020702;28;20079;-68
2023/11/02 13:22:19;;;;;;;1.92;0.80;;;17.20;56.20;;;;;;5003839;28;20550;-68
2023/11/02 13:24:45;;;;;;;2.08;1.00;;;17.10;56.60;;;;;;4991285;28;20432;-68
2023/11/02 13:27:11;;;;;;;4.70;0.90;;;17.00;55.60;;;;;;5014459;28;20500;-68
2023/11/02 13:29:37;;;;;;;2.40;0.70;;;17.00;55.60;;;;;;5029281;28;20061;-65
2023/11/02 13:32:03;;;;;;;2.30;0.93;;;17.00;54.10;;;;;;5025513;28;20753;-65
2023/11/02 13:34:28;;;;;;;0.63;0.63;;;16.90;54.60;;;;;;5024923;28;20493;-64
2023/11/02 13:36:54;;;;;;;1.75;0.63;;;16.90;55.10;;;;;;5028085;28;20029;-65
2023/11/02 13:39:20;;;;;;;1.83;1.38;;;16.90;55.70;;;;;;5023473;28;20026;-65
2023/11/02 13:41:45;;;;;;;2.20;0.80;;;16.80;55.50;;;;;;5023083;28;20032;-65
2023/11/02 13:44:11;;;;;;;0.50;0.50;;;16.80;55.40;;;;;;5023232;28;20037;-65
2023/11/02 13:46:37;;;;;;;6.55;1.02;;;16.80;56.30;;;;;;5008055;28;20041;-65
2023/11/02 13:49:03;;;;;;;2.92;1.63;;;16.80;56.50;;;;;;5021179;28;20429;-64
2023/11/02 13:51:28;;;;;;;1.15;0.30;;;16.70;55.30;;;;;;5028113;28;20037;-65
2023/11/02 13:53:54;;;;;;;1.38;1.23;;;16.60;55.20;;;;;;5028508;28;20409;-65
2023/11/02 13:56:21;;;;;;;0.80;0.50;;;16.60;54.40;;;;;;5008766;28;20116;-64
2023/11/02 13:58:47;;;;;;;2.50;0.88;;;16.60;54.70;;;;;;5021716;28;20038;-65
2023/11/02 14:01:12;;;;;;;2.33;0.40;;;16.60;54.60;;;;;;5012107;28;20055;-65
2023/11/02 14:03:38;;;;;;;0.45;0.30;;;16.60;53.90;;;;;;5009299;28;20461;-65
2023/11/02 14:06:04;;;;;;;3.17;0.52;;;16.60;53.10;;;;;;5005416;28;20379;-65
2023/11/02 14:08:32;;;;;;;1.45;0.75;;;16.60;54.10;;;;;;5023107;28;20794;-65
2023/11/02 14:11:05;;;;;;;0.95;0.90;;;16.60;54.30;;;;;;5025820;28;20033;-65
2023/11/02 14:13:34;;;;;;;1.70;1.08;;;16.60;53.90;;;;;;5030327;28;20488;-65
2023/11/02 14:16:01;;;;;;;0.55;0.40;;;16.60;53.40;;;;;;5021358;28;20025;-65
2023/11/02 14:18:27;;;;;;;1.13;0.70;;;16.60;53.00;;;;;;5028260;28;20025;-64